sensor_id;sensor_type;location;lat;lon;timestamp;pressure;altitude;pressure_sealevel;temperature;humidity
22755;BME280;11544;42.020;23.094;2022-11-20T00:01:30;96618.63;;;17.95;90.04
22755;BME280;11544;42.020;23.094;2022-11-20T00:03:58;96608.31;;;17.92;90.52
22755;BME280;11544;42.020;23.094;2022-11-20T00:06:34;96617.78;;;17.94;90.33
22755;BME280;11544;42.020;23.094;2022-11-20T00:09:04;96627.34;;;17.84;90.87
22755;BME280;11544;42.020;23.094;2022-11-20T00:11:54;96624.88;;;17.94;90.72
22755;BME280;11544;42.020;23.094;2022-11-20T00:14:21;96628.63;;;18.03;90.60
22755;BME280;11544;42.020;23.094;2022-11-20T00:16:47;96626.19;;;17.88;91.40
22755;BME280;11544;42.020;23.094;2022-11-20T00:19:14;96624.03;;;17.69;92.70
22755;BME280;11544;42.020;23.094;2022-11-20T00:21:41;96621.75;;;17.76;92.80
22755;BME280;11544;42.020;23.094;2022-11-20T00:24:08;96614.19;;;17.71;92.53
22755;BME280;11544;42.020;23.094;2022-11-20T00:26:37;96615.59;;;17.64;93.63
22755;BME280;11544;42.020;23.094;2022-11-20T00:29:03;96615.50;;;17.90;92.68
22755;BME280;11544;42.020;23.094;2022-11-20T00:31:30;96623.19;;;17.93;91.62
22755;BME280;11544;42.020;23.094;2022-11-20T00:33:59;96632.63;;;17.84;91.42
22755;BME280;11544;42.020;23.094;2022-11-20T00:36:31;96629.03;;;17.85;91.16
22755;BME280;11544;42.020;23.094;2022-11-20T00:38:58;96630.34;;;17.67;92.83
22755;BME280;11544;42.020;23.094;2022-11-20T00:41:27;96636.81;;;17.63;93.47
22755;BME280;11544;42.020;23.094;2022-11-20T00:43:55;96627.44;;;17.83;92.43
22755;BME280;11544;42.020;23.094;2022-11-20T00:46:24;96620.59;;;17.80;91.90
22755;BME280;11544;42.020;23.094;2022-11-20T00:48:52;96626.09;;;17.77;92.28
22755;BME280;11544;42.020;23.094;2022-11-20T00:51:21;96618.75;;;17.69;93.32
22755;BME280;11544;42.020;23.094;2022-11-20T00:53:48;96612.47;;;17.59;94.39
22755;BME280;11544;42.020;23.094;2022-11-20T00:56:17;96606.84;;;17.64;94.00
22755;BME280;11544;42.020;23.094;2022-11-20T00:58:48;96613.91;;;17.63;93.79
22755;BME280;11544;42.020;23.094;2022-11-20T01:01:16;96606.41;;;17.46;94.79
22755;BME280;11544;42.020;23.094;2022-11-20T01:03:45;96594.50;;;17.64;94.96
22755;BME280;11544;42.020;23.094;2022-11-20T01:06:18;96590.53;;;17.59;94.73
22755;BME280;11544;42.020;23.094;2022-11-20T01:08:45;96593.13;;;17.47;94.89
22755;BME280;11544;42.020;23.094;2022-11-20T01:11:17;96582.13;;;17.53;94.81
22755;BME280;11544;42.020;23.094;2022-11-20T01:13:46;96571.84;;;17.50;94.35
22755;BME280;11544;42.020;23.094;2022-11-20T01:16:18;96576.53;;;17.58;94.16
22755;BME280;11544;42.020;23.094;2022-11-20T01:18:48;96566.59;;;17.62;93.36
22755;BME280;11544;42.020;23.094;2022-11-20T01:21:21;96572.94;;;17.59;93.04
22755;BME280;11544;42.020;23.094;2022-11-20T01:23:48;96573.56;;;17.63;92.63
22755;BME280;11544;42.020;23.094;2022-11-20T01:26:19;96579.09;;;17.71;91.76
22755;BME280;11544;42.020;23.094;2022-11-20T01:28:46;96563.28;;;17.71;90.68
22755;BME280;11544;42.020;23.094;2022-11-20T01:31:23;96567.03;;;17.80;90.30
22755;BME280;11544;42.020;23.094;2022-11-20T01:33:52;96547.91;;;17.89;89.35
22755;BME280;11544;42.020;23.094;2022-11-20T01:36:21;96551.63;;;17.86;88.60
22755;BME280;11544;42.020;23.094;2022-11-20T01:38:51;96553.56;;;17.95;87.87
22755;BME280;11544;42.020;23.094;2022-11-20T01:41:19;96545.63;;;17.84;88.00
22755;BME280;11544;42.020;23.094;2022-11-20T01:44:06;96543.38;;;17.91;88.02
22755;BME280;11544;42.020;23.094;2022-11-20T01:46:35;96538.22;;;17.89;87.68
22755;BME280;11544;42.020;23.094;2022-11-20T01:49:19;96521.66;;;17.87;87.35
22755;BME280;11544;42.020;23.094;2022-11-20T01:51:58;96522.97;;;17.82;88.05
22755;BME280;11544;42.020;23.094;2022-11-20T01:54:42;96517.75;;;17.93;86.89
22755;BME280;11544;42.020;23.094;2022-11-20T01:57:15;96522.47;;;17.76;87.69
22755;BME280;11544;42.020;23.094;2022-11-20T01:59:54;96518.28;;;17.85;87.04
22755;BME280;11544;42.020;23.094;2022-11-20T02:02:24;96519.50;;;17.81;87.18
22755;BME280;11544;42.020;23.094;2022-11-20T02:04:56;96518.44;;;17.84;87.32
22755;BME280;11544;42.020;23.094;2022-11-20T02:07:27;96529.63;;;17.74;87.38
22755;BME280;11544;42.020;23.094;2022-11-20T02:09:54;96530.47;;;17.75;86.96
22755;BME280;11544;42.020;23.094;2022-11-20T02:12:25;96523.91;;;17.81;87.19
22755;BME280;11544;42.020;23.094;2022-11-20T02:15:10;96530.56;;;17.73;87.00
22755;BME280;11544;42.020;23.094;2022-11-20T02:17:37;96531.13;;;17.90;85.64
22755;BME280;11544;42.020;23.094;2022-11-20T02:20:06;96515.59;;;17.74;85.51
22755;BME280;11544;42.020;23.094;2022-11-20T02:22:41;96505.28;;;17.71;86.15
22755;BME280;11544;42.020;23.094;2022-11-20T02:25:09;96518.47;;;17.71;86.32
22755;BME280;11544;42.020;23.094;2022-11-20T02:27:36;96517.00;;;17.91;85.20
22755;BME280;11544;42.020;23.094;2022-11-20T02:30:05;96525.28;;;17.97;84.12
22755;BME280;11544;42.020;23.094;2022-11-20T02:32:35;96505.84;;;17.87;84.52
22755;BME280;11544;42.020;23.094;2022-11-20T02:37:58;96498.06;;;17.97;83.05
22755;BME280;11544;42.020;23.094;2022-11-20T02:40:26;96496.66;;;17.93;82.98
22755;BME280;11544;42.020;23.094;2022-11-20T02:42:54;96507.53;;;17.99;82.69
22755;BME280;11544;42.020;23.094;2022-11-20T02:45:22;96500.56;;;17.87;82.85
22755;BME280;11544;42.020;23.094;2022-11-20T02:47:50;96501.75;;;17.83;83.16
22755;BME280;11544;42.020;23.094;2022-11-20T02:50:17;96523.00;;;17.93;82.79
22755;BME280;11544;42.020;23.094;2022-11-20T02:52:44;96519.66;;;17.91;82.62
22755;BME280;11544;42.020;23.094;2022-11-20T02:55:11;96509.03;;;17.80;83.71
22755;BME280;11544;42.020;23.094;2022-11-20T02:57:38;96524.19;;;17.89;82.79
22755;BME280;11544;42.020;23.094;2022-11-20T03:00:06;96518.81;;;18.02;82.78
22755;BME280;11544;42.020;23.094;2022-11-20T03:02:33;96512.47;;;18.04;81.79
22755;BME280;11544;42.020;23.094;2022-11-20T03:05:02;96508.25;;;18.02;82.09
22755;BME280;11544;42.020;23.094;2022-11-20T03:07:30;96515.44;;;17.88;82.35
22755;BME280;11544;42.020;23.094;2022-11-20T03:10:00;96519.78;;;18.01;82.36
22755;BME280;11544;42.020;23.094;2022-11-20T03:12:28;96536.41;;;17.90;82.86
22755;BME280;11544;42.020;23.094;2022-11-20T03:14:55;96544.22;;;17.91;82.73
22755;BME280;11544;42.020;23.094;2022-11-20T03:17:26;96536.06;;;17.94;83.08
22755;BME280;11544;42.020;23.094;2022-11-20T03:19:53;96540.53;;;17.70;83.54
22755;BME280;11544;42.020;23.094;2022-11-20T03:22:20;96532.88;;;17.78;83.58
22755;BME280;11544;42.020;23.094;2022-11-20T03:24:51;96527.22;;;17.95;83.62
22755;BME280;11544;42.020;23.094;2022-11-20T03:27:22;96526.31;;;17.60;85.60
22755;BME280;11544;42.020;23.094;2022-11-20T03:29:51;96539.75;;;17.56;85.99
22755;BME280;11544;42.020;23.094;2022-11-20T03:32:19;96538.50;;;17.49;86.75
22755;BME280;11544;42.020;23.094;2022-11-20T03:34:45;96533.53;;;17.58;86.51
22755;BME280;11544;42.020;23.094;2022-11-20T03:37:12;96531.25;;;17.53;86.28
22755;BME280;11544;42.020;23.094;2022-11-20T03:39:40;96536.31;;;17.67;85.60
22755;BME280;11544;42.020;23.094;2022-11-20T03:42:08;96537.41;;;17.76;85.07
22755;BME280;11544;42.020;23.094;2022-11-20T03:44:57;96534.53;;;17.68;85.31
22755;BME280;11544;42.020;23.094;2022-11-20T03:47:24;96524.38;;;17.74;85.29
22755;BME280;11544;42.020;23.094;2022-11-20T03:49:51;96531.97;;;17.66;84.97
22755;BME280;11544;42.020;23.094;2022-11-20T03:52:20;96527.88;;;17.62;85.43
22755;BME280;11544;42.020;23.094;2022-11-20T03:54:56;96525.38;;;17.61;85.91
22755;BME280;11544;42.020;23.094;2022-11-20T03:57:28;96528.75;;;17.63;86.01
22755;BME280;11544;42.020;23.094;2022-11-20T03:59:54;96525.03;;;17.65;85.91
22755;BME280;11544;42.020;23.094;2022-11-20T04:02:21;96516.84;;;17.57;86.25
22755;BME280;11544;42.020;23.094;2022-11-20T04:04:50;96526.31;;;17.60;86.07
22755;BME280;11544;42.020;23.094;2022-11-20T04:07:18;96525.03;;;17.65;85.90
22755;BME280;11544;42.020;23.094;2022-11-20T04:09:45;96535.94;;;17.61;86.51
22755;BME280;11544;42.020;23.094;2022-11-20T04:12:18;96517.44;;;17.49;86.67
22755;BME280;11544;42.020;23.094;2022-11-20T04:14:45;96527.41;;;17.57;86.71
22755;BME280;11544;42.020;23.094;2022-11-20T04:17:11;96522.84;;;17.59;86.50
22755;BME280;11544;42.020;23.094;2022-11-20T04:19:39;96515.69;;;17.61;85.73
22755;BME280;11544;42.020;23.094;2022-11-20T04:22:06;96509.34;;;17.64;85.96
22755;BME280;11544;42.020;23.094;2022-11-20T04:24:33;96502.34;;;17.51;86.14
22755;BME280;11544;42.020;23.094;2022-11-20T04:27:00;96511.03;;;17.41;86.47
22755;BME280;11544;42.020;23.094;2022-11-20T04:29:27;96513.34;;;17.45;86.92
22755;BME280;11544;42.020;23.094;2022-11-20T04:31:54;96514.66;;;17.40;86.70
22755;BME280;11544;42.020;23.094;2022-11-20T04:34:21;96508.47;;;17.52;86.58
22755;BME280;11544;42.020;23.094;2022-11-20T04:36:47;96508.13;;;17.56;85.90
22755;BME280;11544;42.020;23.094;2022-11-20T04:39:14;96506.94;;;17.61;85.45
22755;BME280;11544;42.020;23.094;2022-11-20T04:41:42;96516.03;;;17.56;85.82
22755;BME280;11544;42.020;23.094;2022-11-20T04:44:09;96518.50;;;17.47;86.76
22755;BME280;11544;42.020;23.094;2022-11-20T04:46:39;96508.75;;;17.36;87.12
22755;BME280;11544;42.020;23.094;2022-11-20T04:49:07;96505.78;;;17.41;87.39
22755;BME280;11544;42.020;23.094;2022-11-20T04:51:35;96505.38;;;17.58;86.12
22755;BME280;11544;42.020;23.094;2022-11-20T04:54:03;96505.34;;;17.47;86.33
22755;BME280;11544;42.020;23.094;2022-11-20T04:56:30;96504.72;;;17.43;86.37
22755;BME280;11544;42.020;23.094;2022-11-20T04:59:01;96520.69;;;17.53;86.18
22755;BME280;11544;42.020;23.094;2022-11-20T05:01:29;96514.84;;;17.61;85.97
22755;BME280;11544;42.020;23.094;2022-11-20T05:03:56;96505.72;;;17.53;86.14
22755;BME280;11544;42.020;23.094;2022-11-20T05:06:24;96519.84;;;17.52;86.25
22755;BME280;11544;42.020;23.094;2022-11-20T05:08:51;96511.38;;;17.60;86.15
22755;BME280;11544;42.020;23.094;2022-11-20T05:11:20;96516.84;;;17.57;85.92
22755;BME280;11544;42.020;23.094;2022-11-20T05:13:48;96523.09;;;17.56;86.00
22755;BME280;11544;42.020;23.094;2022-11-20T05:16:19;96528.38;;;17.56;85.71
22755;BME280;11544;42.020;23.094;2022-11-20T05:18:47;96521.09;;;17.35;86.55
22755;BME280;11544;42.020;23.094;2022-11-20T05:21:14;96525.09;;;17.41;86.13
22755;BME280;11544;42.020;23.094;2022-11-20T05:23:41;96519.97;;;17.51;86.36
22755;BME280;11544;42.020;23.094;2022-11-20T05:26:20;96519.84;;;17.52;85.45
22755;BME280;11544;42.020;23.094;2022-11-20T05:28:49;96515.69;;;17.61;85.22
22755;BME280;11544;42.020;23.094;2022-11-20T05:31:19;96520.34;;;17.58;84.94
22755;BME280;11544;42.020;23.094;2022-11-20T05:33:54;96524.72;;;17.70;84.55
22755;BME280;11544;42.020;23.094;2022-11-20T05:36:22;96523.91;;;17.81;82.80
22755;BME280;11544;42.020;23.094;2022-11-20T05:38:50;96539.28;;;17.87;82.88
22755;BME280;11544;42.020;23.094;2022-11-20T05:41:24;96542.78;;;17.98;81.73
22755;BME280;11544;42.020;23.094;2022-11-20T05:43:51;96547.22;;;17.74;81.57
22755;BME280;11544;42.020;23.094;2022-11-20T05:46:20;96551.97;;;17.82;82.05
22755;BME280;11544;42.020;23.094;2022-11-20T05:48:54;96552.41;;;18.11;80.24
22755;BME280;11544;42.020;23.094;2022-11-20T05:51:22;96554.41;;;17.96;80.80
22755;BME280;11544;42.020;23.094;2022-11-20T05:53:48;96570.25;;;17.72;82.92
22755;BME280;11544;42.020;23.094;2022-11-20T05:56:18;96572.34;;;17.67;84.06
22755;BME280;11544;42.020;23.094;2022-11-20T05:58:45;96577.41;;;17.94;82.80
22755;BME280;11544;42.020;23.094;2022-11-20T06:01:24;96581.84;;;18.05;82.52
22755;BME280;11544;42.020;23.094;2022-11-20T06:03:53;96585.59;;;18.13;82.98
22755;BME280;11544;42.020;23.094;2022-11-20T06:06:23;96579.53;;;18.47;80.12
22755;BME280;11544;42.020;23.094;2022-11-20T06:08:53;96582.91;;;18.26;80.79
22755;BME280;11544;42.020;23.094;2022-11-20T06:11:20;96593.13;;;18.07;81.94
22755;BME280;11544;42.020;23.094;2022-11-20T06:13:47;96591.56;;;17.93;82.70
22755;BME280;11544;42.020;23.094;2022-11-20T06:16:28;96586.28;;;17.93;83.07
22755;BME280;11544;42.020;23.094;2022-11-20T06:18:55;96588.53;;;17.86;83.73
22755;BME280;11544;42.020;23.094;2022-11-20T06:21:23;96587.22;;;17.92;84.05
22755;BME280;11544;42.020;23.094;2022-11-20T06:23:50;96581.47;;;17.87;85.10
22755;BME280;11544;42.020;23.094;2022-11-20T06:26:23;96583.84;;;17.66;87.09
22755;BME280;11544;42.020;23.094;2022-11-20T06:28:52;96584.78;;;17.53;89.04
22755;BME280;11544;42.020;23.094;2022-11-20T06:31:21;96587.09;;;17.45;91.43
22755;BME280;11544;42.020;23.094;2022-11-20T06:33:48;96578.47;;;17.43;91.89
22755;BME280;11544;42.020;23.094;2022-11-20T06:36:17;96580.41;;;17.41;92.75
22755;BME280;11544;42.020;23.094;2022-11-20T06:38:44;96582.75;;;17.33;93.26
22755;BME280;11544;42.020;23.094;2022-11-20T06:41:15;96599.53;;;17.19;95.40
22755;BME280;11544;42.020;23.094;2022-11-20T06:43:53;96590.97;;;17.28;95.10
22755;BME280;11544;42.020;23.094;2022-11-20T06:46:20;96591.75;;;17.18;96.38
22755;BME280;11544;42.020;23.094;2022-11-20T06:48:48;96595.56;;;17.01;97.76
22755;BME280;11544;42.020;23.094;2022-11-20T06:51:16;96596.91;;;17.19;96.93
22755;BME280;11544;42.020;23.094;2022-11-20T06:53:49;96596.91;;;17.19;96.67
22755;BME280;11544;42.020;23.094;2022-11-20T06:56:16;96600.19;;;17.10;97.93
22755;BME280;11544;42.020;23.094;2022-11-20T06:58:43;96598.13;;;17.26;95.72
22755;BME280;11544;42.020;23.094;2022-11-20T07:01:14;96604.28;;;17.51;94.48
22755;BME280;11544;42.020;23.094;2022-11-20T07:03:41;96602.16;;;17.32;94.65
22755;BME280;11544;42.020;23.094;2022-11-20T07:06:09;96586.00;;;17.61;90.66
22755;BME280;11544;42.020;23.094;2022-11-20T07:08:36;96585.50;;;17.55;90.74
22755;BME280;11544;42.020;23.094;2022-11-20T07:11:11;96586.22;;;16.97;96.73
22755;BME280;11544;42.020;23.094;2022-11-20T07:13:38;96580.03;;;17.22;95.04
22755;BME280;11544;42.020;23.094;2022-11-20T07:16:07;96580.41;;;17.41;93.57
22755;BME280;11544;42.020;23.094;2022-11-20T07:18:38;96574.72;;;17.59;90.18
22755;BME280;11544;42.020;23.094;2022-11-20T07:21:16;96580.56;;;17.51;90.44
22755;BME280;11544;42.020;23.094;2022-11-20T07:23:43;96568.16;;;17.64;89.46
22755;BME280;11544;42.020;23.094;2022-11-20T07:26:11;96575.31;;;17.51;90.09
22755;BME280;11544;42.020;23.094;2022-11-20T07:28:38;96578.59;;;17.66;88.75
22755;BME280;11544;42.020;23.094;2022-11-20T07:31:18;96582.63;;;17.59;89.53
22755;BME280;11544;42.020;23.094;2022-11-20T07:33:50;96573.91;;;17.82;86.75
22755;BME280;11544;42.020;23.094;2022-11-20T07:36:17;96563.34;;;17.82;84.96
22755;BME280;11544;42.020;23.094;2022-11-20T07:38:47;96566.59;;;17.86;84.90
22755;BME280;11544;42.020;23.094;2022-11-20T07:41:14;96577.06;;;17.74;85.19
22755;BME280;11544;42.020;23.094;2022-11-20T07:43:42;96562.28;;;17.85;83.87
22755;BME280;11544;42.020;23.094;2022-11-20T07:46:11;96561.69;;;17.81;83.38
22755;BME280;11544;42.020;23.094;2022-11-20T07:48:38;96562.03;;;17.88;83.46
22755;BME280;11544;42.020;23.094;2022-11-20T07:51:05;96553.34;;;17.98;83.09
22755;BME280;11544;42.020;23.094;2022-11-20T07:53:32;96555.13;;;18.09;82.37
22755;BME280;11544;42.020;23.094;2022-11-20T07:56:02;96545.53;;;17.97;81.31
22755;BME280;11544;42.020;23.094;2022-11-20T07:58:30;96545.91;;;18.04;81.59
22755;BME280;11544;42.020;23.094;2022-11-20T08:01:06;96550.22;;;18.05;81.89
22755;BME280;11544;42.020;23.094;2022-11-20T08:03:34;96551.44;;;18.01;82.37
22755;BME280;11544;42.020;23.094;2022-11-20T08:06:04;96559.09;;;18.04;81.44
22755;BME280;11544;42.020;23.094;2022-11-20T08:08:31;96549.66;;;18.12;80.64
22755;BME280;11544;42.020;23.094;2022-11-20T08:11:08;96543.53;;;18.23;80.33
22755;BME280;11544;42.020;23.094;2022-11-20T08:13:53;96541.03;;;18.22;79.97
22755;BME280;11544;42.020;23.094;2022-11-20T08:16:45;96539.69;;;18.16;79.76
22755;BME280;11544;42.020;23.094;2022-11-20T08:19:18;96548.72;;;18.25;80.10
22755;BME280;11544;42.020;23.094;2022-11-20T08:21:46;96542.63;;;18.35;79.51
22755;BME280;11544;42.020;23.094;2022-11-20T08:24:13;96541.16;;;18.20;80.25
22755;BME280;11544;42.020;23.094;2022-11-20T08:26:40;96534.06;;;18.20;80.74
22755;BME280;11544;42.020;23.094;2022-11-20T08:29:07;96537.31;;;18.24;80.15
22755;BME280;11544;42.020;23.094;2022-11-20T08:31:34;96553.38;;;18.10;81.28
22755;BME280;11544;42.020;23.094;2022-11-20T08:34:01;96554.09;;;18.12;81.55
22755;BME280;11544;42.020;23.094;2022-11-20T08:36:39;96555.72;;;18.02;81.95
22755;BME280;11544;42.020;23.094;2022-11-20T08:39:06;96555.38;;;18.06;82.26
22755;BME280;11544;42.020;23.094;2022-11-20T08:41:33;96554.78;;;18.14;82.46
22755;BME280;11544;42.020;23.094;2022-11-20T08:44:03;96553.56;;;18.07;81.93
22755;BME280;11544;42.020;23.094;2022-11-20T08:46:41;96560.66;;;18.06;82.58
22755;BME280;11544;42.020;23.094;2022-11-20T08:49:11;96564.78;;;18.22;82.22
22755;BME280;11544;42.020;23.094;2022-11-20T08:51:39;96565.09;;;18.06;81.93
22755;BME280;11544;42.020;23.094;2022-11-20T08:54:07;96560.41;;;17.98;82.82
22755;BME280;11544;42.020;23.094;2022-11-20T08:56:35;96577.31;;;17.95;83.19
22755;BME280;11544;42.020;23.094;2022-11-20T08:59:09;96565.69;;;17.98;82.53
22755;BME280;11544;42.020;23.094;2022-11-20T09:01:56;96564.22;;;17.94;82.85
22755;BME280;11544;42.020;23.094;2022-11-20T09:04:23;96553.00;;;18.03;81.37
22755;BME280;11544;42.020;23.094;2022-11-20T09:06:53;96553.97;;;18.13;80.58
22755;BME280;11544;42.020;23.094;2022-11-20T09:09:20;96552.44;;;18.22;80.22
22755;BME280;11544;42.020;23.094;2022-11-20T09:11:48;96559.13;;;18.15;79.84
22755;BME280;11544;42.020;23.094;2022-11-20T09:14:16;96543.78;;;18.20;79.77
22755;BME280;11544;42.020;23.094;2022-11-20T09:16:45;96535.63;;;18.23;79.18
22755;BME280;11544;42.020;23.094;2022-11-20T09:19:12;96547.25;;;18.20;79.40
22755;BME280;11544;42.020;23.094;2022-11-20T09:22:00;96538.63;;;18.30;78.53
22755;BME280;11544;42.020;23.094;2022-11-20T09:24:27;96540.56;;;18.28;78.61
22755;BME280;11544;42.020;23.094;2022-11-20T09:26:54;96543.31;;;18.37;78.16
22755;BME280;11544;42.020;23.094;2022-11-20T09:29:21;96545.38;;;18.45;77.67
22755;BME280;11544;42.020;23.094;2022-11-20T09:31:49;96516.00;;;18.50;77.00
22755;BME280;11544;42.020;23.094;2022-11-20T09:34:16;96546.94;;;18.48;77.46
22755;BME280;11544;42.020;23.094;2022-11-20T09:36:43;96528.69;;;18.56;76.90
22755;BME280;11544;42.020;23.094;2022-11-20T09:39:12;96526.78;;;18.58;76.31
22755;BME280;11544;42.020;23.094;2022-11-20T09:45:12;96528.22;;;18.85;74.87
22755;BME280;11544;42.020;23.094;2022-11-20T09:55:47;96506.59;;;19.02;73.42
22755;BME280;11544;42.020;23.094;2022-11-20T09:58:29;96513.47;;;18.82;73.79
22755;BME280;11544;42.020;23.094;2022-11-20T10:01:08;96492.41;;;19.03;73.08
22755;BME280;11544;42.020;23.094;2022-11-20T10:03:56;96504.72;;;18.81;74.59
22755;BME280;11544;42.020;23.094;2022-11-20T10:06:41;96500.38;;;18.58;76.23
22755;BME280;11544;42.020;23.094;2022-11-20T10:25:39;96486.50;;;18.33;78.76
22755;BME280;11544;42.020;23.094;2022-11-20T10:28:21;96497.78;;;18.35;79.79
22755;BME280;11544;42.020;23.094;2022-11-20T10:31:00;96498.72;;;18.34;80.19
22755;BME280;11544;42.020;23.094;2022-11-20T10:33:35;96506.72;;;18.10;80.93
22755;BME280;11544;42.020;23.094;2022-11-20T10:36:27;96511.66;;;18.15;80.97
22755;BME280;11544;42.020;23.094;2022-11-20T10:39:05;96503.75;;;18.26;80.15
22755;BME280;11544;42.020;23.094;2022-11-20T10:41:40;96497.13;;;18.09;80.95
22755;BME280;11544;42.020;23.094;2022-11-20T10:44:21;96498.69;;;18.23;81.00
22755;BME280;11544;42.020;23.094;2022-11-20T10:47:13;96488.53;;;18.41;80.21
22755;BME280;11544;42.020;23.094;2022-11-20T10:49:42;96490.69;;;18.25;80.27
22755;BME280;11544;42.020;23.094;2022-11-20T11:00:50;96485.59;;;17.99;81.77
22755;BME280;11544;42.020;23.094;2022-11-20T11:03:29;96490.28;;;17.95;82.14
22755;BME280;11544;42.020;23.094;2022-11-20T11:06:10;96486.44;;;17.99;82.27
22755;BME280;11544;42.020;23.094;2022-11-20T11:08:42;96483.81;;;18.11;81.57
22755;BME280;11544;42.020;23.094;2022-11-20T11:11:24;96481.91;;;18.02;81.81
22755;BME280;11544;42.020;23.094;2022-11-20T11:14:16;96484.28;;;18.05;81.56
22755;BME280;11544;42.020;23.094;2022-11-20T11:16:50;96499.03;;;17.96;83.04
22755;BME280;11544;42.020;23.094;2022-11-20T11:19:17;96501.69;;;18.07;81.78
22755;BME280;11544;42.020;23.094;2022-11-20T11:21:58;96502.19;;;18.12;82.05
22755;BME280;11544;42.020;23.094;2022-11-20T11:24:51;96504.00;;;18.12;82.27
22755;BME280;11544;42.020;23.094;2022-11-20T11:27:21;96507.31;;;18.14;82.44
22755;BME280;11544;42.020;23.094;2022-11-20T11:29:49;96524.13;;;18.13;83.31
22755;BME280;11544;42.020;23.094;2022-11-20T11:32:20;96536.53;;;17.99;84.94
22755;BME280;11544;42.020;23.094;2022-11-20T11:35:03;96534.50;;;17.92;85.78
22755;BME280;11544;42.020;23.094;2022-11-20T11:37:41;96524.56;;;17.95;85.58
22755;BME280;11544;42.020;23.094;2022-11-20T11:40:09;96525.19;;;17.75;87.54
22755;BME280;11544;42.020;23.094;2022-11-20T11:42:57;96535.97;;;17.72;88.26
22755;BME280;11544;42.020;23.094;2022-11-20T11:45:52;96544.19;;;17.56;89.01
22755;BME280;11544;42.020;23.094;2022-11-20T11:48:41;96560.47;;;17.61;89.31
22755;BME280;11544;42.020;23.094;2022-11-20T11:51:20;96561.94;;;17.65;89.16
22755;BME280;11544;42.020;23.094;2022-11-20T11:53:58;96563.94;;;17.62;89.84
22755;BME280;11544;42.020;23.094;2022-11-20T11:56:33;96555.44;;;17.58;90.19
22755;BME280;11544;42.020;23.094;2022-11-20T11:59:10;96563.00;;;17.63;90.84
22755;BME280;11544;42.020;23.094;2022-11-20T12:01:47;96567.50;;;17.49;91.86
22755;BME280;11544;42.020;23.094;2022-11-20T12:07:37;96563.47;;;17.56;93.16
22755;BME280;11544;42.020;23.094;2022-11-20T12:10:21;96556.00;;;17.74;93.59
22755;BME280;11544;42.020;23.094;2022-11-20T12:13:22;96552.53;;;17.50;93.87
22755;BME280;11544;42.020;23.094;2022-11-20T12:15:53;96569.34;;;17.60;94.26
22755;BME280;11544;42.020;23.094;2022-11-20T12:18:22;96566.19;;;17.55;95.56
22755;BME280;11544;42.020;23.094;2022-11-20T12:31:52;96521.59;;;17.17;100.00
22755;BME280;11544;42.020;23.094;2022-11-20T12:43:53;96522.00;;;17.23;100.00
22755;BME280;11544;42.020;23.094;2022-11-20T12:46:57;96518.38;;;17.24;100.00
22755;BME280;11544;42.020;23.094;2022-11-20T12:50:19;96515.63;;;17.39;99.69
22755;BME280;11544;42.020;23.094;2022-11-20T13:07:41;96503.88;;;17.43;97.35
22755;BME280;11544;42.020;23.094;2022-11-20T13:18:17;96468.88;;;17.76;93.68
22755;BME280;11544;42.020;23.094;2022-11-20T13:20:51;96464.47;;;17.76;92.87
22755;BME280;11544;42.020;23.094;2022-11-20T13:23:25;96457.09;;;17.93;90.51
22755;BME280;11544;42.020;23.094;2022-11-20T13:28:42;96458.53;;;17.97;86.74
22755;BME280;11544;42.020;23.094;2022-11-20T13:31:31;96452.19;;;17.88;87.43
22755;BME280;11544;42.020;23.094;2022-11-20T13:34:27;96451.94;;;17.91;87.41
22755;BME280;11544;42.020;23.094;2022-11-20T13:36:56;96445.50;;;17.60;87.23
22755;BME280;11544;42.020;23.094;2022-11-20T13:39:29;96448.47;;;17.55;86.83
22755;BME280;11544;42.020;23.094;2022-11-20T13:44:53;96437.00;;;17.68;87.55
22755;BME280;11544;42.020;23.094;2022-11-20T13:47:26;96427.00;;;17.38;89.95
22755;BME280;11544;42.020;23.094;2022-11-20T13:49:55;96422.22;;;17.43;90.33
22755;BME280;11544;42.020;23.094;2022-11-20T13:52:54;96411.81;;;17.41;89.83
22755;BME280;11544;42.020;23.094;2022-11-20T13:55:40;96415.50;;;17.39;89.94
22755;BME280;11544;42.020;23.094;2022-11-20T14:01:14;96427.84;;;17.49;84.91
22755;BME280;11544;42.020;23.094;2022-11-20T14:03:43;96422.25;;;17.54;84.57
22755;BME280;11544;42.020;23.094;2022-11-20T14:06:33;96410.53;;;17.58;81.71
22755;BME280;11544;42.020;23.094;2022-11-20T14:09:01;96385.84;;;17.70;80.93
22755;BME280;11544;42.020;23.094;2022-11-20T14:11:30;96398.06;;;17.71;82.15
22755;BME280;11544;42.020;23.094;2022-11-20T14:14:17;96391.72;;;17.63;82.26
22755;BME280;11544;42.020;23.094;2022-11-20T14:17:09;96398.94;;;17.72;81.28
22755;BME280;11544;42.020;23.094;2022-11-20T14:19:44;96404.28;;;17.59;82.24
22755;BME280;11544;42.020;23.094;2022-11-20T14:22:32;96403.06;;;17.52;83.08
22755;BME280;11544;42.020;23.094;2022-11-20T14:25:19;96389.41;;;17.47;83.72
22755;BME280;11544;42.020;23.094;2022-11-20T14:27:56;96379.34;;;17.41;84.81
22755;BME280;11544;42.020;23.094;2022-11-20T14:30:43;96372.06;;;17.44;84.74
22755;BME280;11544;42.020;23.094;2022-11-20T14:41:51;96370.81;;;17.26;84.63
22755;BME280;11544;42.020;23.094;2022-11-20T14:44:27;96380.22;;;17.17;85.25
22755;BME280;11544;42.020;23.094;2022-11-20T14:46:56;96385.69;;;17.03;86.61
22755;BME280;11544;42.020;23.094;2022-11-20T14:49:30;96377.06;;;17.01;87.39
22755;BME280;11544;42.020;23.094;2022-11-20T14:52:11;96395.47;;;16.89;88.49
22755;BME280;11544;42.020;23.094;2022-11-20T14:54:50;96404.63;;;16.84;89.15
22755;BME280;11544;42.020;23.094;2022-11-20T14:57:35;96397.97;;;16.91;89.82
22755;BME280;11544;42.020;23.094;2022-11-20T15:00:22;96413.81;;;16.78;91.10